Latest Weather Observations for Mount Wellington

IDT60801

Issued at 7:05 pm EDT Sunday 26 October 2014 (issued every 30 minutes, with the page automatically refreshed every 10 minutes)

About weather observations | Map of weather stations | Latest weather observations for TAS | Other Formats
Station Details ID: 094087 Name: MOUNT WELLINGTON Lat: -42.90 Lon: 147.24 Height: 1260.47 m
Data from the previous 72 hours. | See also: Recent months at Mount Wellington
Date/Time
EDT
Temp
°C
App
Temp
°C
Dew
Point
Rel
Hum
%
Delta-T
°C
Wind Press
QNH
hPa
Press
MSL
hPa
Rain
since 9 am
mm
Dir
 
Spd
km/h
Gust
km/h
Spd
kts
Gust
kts
26/07:00pm 5.6 0.4 5.5 99 0.0 NNE 22 28 12 15 - - 6.6
26/06:30pm 5.5 0.7 5.4 99 0.0 NNE 20 24 11 13 - - 6.4
26/06:00pm 5.5 0.7 5.4 99 0.0 NE 20 24 11 13 - - 6.4
26/05:30pm 5.4 1.1 5.3 99 0.0 NNE 17 20 9 11 - - 6.2
26/05:00pm 5.5 1.2 5.4 99 0.0 NNE 17 22 9 12 - - 6.0
26/04:30pm 5.4 0.7 5.3 99 0.0 NE 19 22 10 12 - - 6.0
26/04:00pm 5.5 1.2 5.4 99 0.0 NNE 17 22 9 12 - - 5.8
26/03:30pm 5.5 1.6 5.4 99 0.0 NNE 15 20 8 11 - - 5.4
26/03:00pm 5.5 2.0 5.4 99 0.0 NNE 13 17 7 9 - - 4.4
26/02:30pm 5.3 1.4 5.2 99 0.0 NE 15 20 8 11 - - 3.6
26/02:00pm 5.5 1.6 5.4 99 0.0 NNE 15 19 8 10 - - 3.2
26/01:30pm 5.0 1.0 4.9 99 0.0 NNE 15 19 8 10 - - 3.0
26/01:00pm 4.9 0.9 4.8 99 0.0 NNE 15 19 8 10 - - 2.8
26/12:30pm 4.8 1.1 4.7 99 0.0 NNE 13 19 7 10 - - 2.6
26/12:00pm 4.4 0.3 4.3 99 0.0 NNE 15 20 8 11 - - 2.0
26/11:30am 4.3 0.9 4.2 99 0.0 NNE 11 17 6 9 - - 1.8
26/11:00am 4.1 0.7 4.0 99 0.0 NE 11 15 6 8 - - 1.6
26/10:30am 4.2 0.4 4.1 99 0.0 NE 13 17 7 9 - - 1.4
26/10:00am 3.9 0.5 3.8 99 0.0 NE 11 15 6 8 - - 1.0
26/09:30am 3.6 -0.7 3.5 99 0.0 NE 15 20 8 11 - - 0.6
26/09:00am 3.5 -0.4 3.4 99 0.0 NE 13 17 7 9 - - 7.2
26/08:30am 3.4 -0.9 3.3 99 0.0 NE 15 17 8 9 - - 7.0
26/08:00am 3.1 -0.9 2.8 98 0.1 ENE 13 15 7 8 - - 6.6
26/07:30am 2.7 -1.0 2.4 98 0.1 ENE 11 15 6 8 - - 6.2
26/07:00am 2.7 -1.0 2.4 98 0.1 ENE 11 13 6 7 - - 6.0
26/06:30am 2.7 -0.2 2.4 98 0.1 E 7 9 4 5 - - 5.8
26/06:00am 2.6 -1.1 2.3 98 0.1 ENE 11 13 6 7 - - 4.8
26/05:30am 2.5 -1.2 2.2 98 0.1 NE 11 15 6 8 - - 4.0
26/05:00am 2.7 -1.4 2.4 98 0.1 NE 13 15 7 8 - - 2.6
26/04:30am 2.7 -1.4 2.4 98 0.1 NE 13 15 7 8 - - 2.4
26/04:00am 2.7 -1.0 2.4 98 0.1 NE 11 15 6 8 - - 2.4
26/03:30am 2.7 -1.4 2.4 98 0.1 NNE 13 17 7 9 - - 2.2
26/03:00am 2.8 -1.3 2.5 98 0.1 NE 13 13 7 7 - - 2.0
26/02:30am 2.8 -1.6 2.5 98 0.1 NNE 15 20 8 11 - - 1.6
26/02:00am 2.8 -0.9 2.5 98 0.1 NNE 11 15 6 8 - - 1.6
26/01:30am 2.4 -1.0 2.1 98 0.1 NNE 9 11 5 6 - - 1.2
26/01:00am 2.8 -1.6 2.5 98 0.1 NNE 15 17 8 9 - - 1.0
26/12:30am 3.0 -1.4 2.7 98 0.1 N 15 17 8 9 - - 1.0
26/12:00am 3.2 0.0 2.9 98 0.1 N 9 13 5 7 - - 0.8
 
Date/Time
EDT
Temp
°C
App
Temp
°C
Dew
Point
Rel
Hum
%
Delta-T
°C
Wind Press
QNH
hPa
Press
MSL
hPa
Rain
since 9 am
mm
Dir
 
Spd
km/h
Gust
km/h
Spd
kts
Gust
kts
25/11:30pm 3.3 0.5 3.0 98 0.1 N 7 9 4 5 - - 0.4
25/11:00pm 3.1 -1.3 2.8 98 0.1 NNE 15 20 8 11 - - 0.0
25/10:30pm 3.4 -0.6 3.1 98 0.1 NNE 13 17 7 9 - - 0.0
25/10:00pm 3.7 -0.2 3.4 98 0.1 N 13 15 7 8 - - 0.0
25/09:30pm 3.8 0.3 3.5 98 0.1 NNE 11 17 6 9 - - 0.0
25/09:00pm 4.0 0.2 3.7 98 0.1 NNE 13 17 7 9 - - 0.0
25/08:30pm 4.7 1.8 4.4 98 0.1 N 9 13 5 7 - - 0.0
25/08:00pm 5.0 2.1 4.7 98 0.1 NNE 9 13 5 7 - - 0.0
25/07:30pm 5.4 3.0 5.1 98 0.1 N 7 9 4 5 - - 0.0
25/07:00pm 5.4 2.9 5.0 97 0.2 N 7 9 4 5 - - 0.0
25/06:30pm 5.9 3.5 5.3 96 0.3 NNE 7 9 4 5 - - 0.0
25/06:00pm 5.7 3.8 4.8 94 0.4 ESE 4 6 2 3 - - 0.0
25/05:30pm 10.0 7.2 5.0 71 2.4 NNW 9 13 5 7 - - 0.0
25/05:00pm 10.3 7.5 7.0 80 1.7 W 11 17 6 9 - - 0.0
25/04:30pm 10.7 7.9 7.0 78 1.9 W 11 20 6 11 - - 0.0
25/04:00pm 9.6 6.9 5.8 77 1.9 W 9 17 5 9 - - 0.0
25/03:30pm 10.0 6.6 6.0 76 2.0 WSW 13 19 7 10 - - 0.0
25/03:00pm 9.4 5.8 5.0 74 2.1 W 13 17 7 9 - - 0.0
25/02:30pm 8.8 5.2 5.2 78 1.7 WSW 13 19 7 10 - - 0.0
25/02:00pm 8.2 5.2 6.0 86 1.1 SSW 11 19 6 10 - - 0.0
25/01:30pm 10.2 6.5 6.2 76 2.0 SW 15 22 8 12 - - 0.0
25/01:00pm 7.9 6.4 6.8 93 0.5 N 4 9 2 5 - - 0.0
25/12:30pm 8.6 6.2 7.1 90 0.8 NW 9 17 5 9 - - 0.0
25/12:00pm 9.3 4.8 4.3 71 2.4 W 17 22 9 12 - - 0.0
25/11:30am 9.7 5.7 4.9 72 2.3 W 15 20 8 11 - - 0.0
25/11:00am 8.5 4.8 4.5 76 1.9 WSW 13 20 7 11 - - 0.0
25/10:30am 8.9 5.7 5.1 77 1.8 W 11 19 6 10 - - 0.0
25/10:00am 7.2 3.9 4.5 83 1.3 W 11 20 6 11 - - 0.0
25/09:30am 6.5 2.9 5.0 90 0.7 WSW 13 19 7 10 - - 0.0
25/09:00am 5.5 1.5 5.1 97 0.2 SW 15 24 8 13 - - 0.4
25/08:30am 5.3 0.6 5.0 98 0.1 SW 19 22 10 12 - - 0.4
25/08:00am 5.5 -0.1 5.2 98 0.1 WSW 24 32 13 17 - - 0.4
25/07:30am 5.5 0.6 5.2 98 0.1 WSW 20 28 11 15 - - 0.4
25/07:00am 5.5 1.6 5.2 98 0.1 SW 15 22 8 12 - - 0.4
25/06:30am 5.6 0.4 5.3 98 0.1 WSW 22 32 12 17 - - 0.4
25/06:00am 5.8 1.0 5.5 98 0.1 WSW 20 32 11 17 - - 0.4
25/05:30am 5.7 -0.7 5.4 98 0.1 SW 28 35 15 19 - - 0.4
25/05:00am 5.9 -0.8 5.6 98 0.1 WSW 30 39 16 21 - - 0.4
25/04:30am 6.1 -1.9 5.7 97 0.2 WSW 37 48 20 26 - - 0.4
25/04:00am 6.7 -0.4 6.4 98 0.1 SW 33 50 18 27 - - 0.4
25/03:30am 6.8 1.0 6.4 97 0.2 WSW 26 35 14 19 - - 0.4
25/03:00am 6.9 -0.2 6.2 95 0.3 SW 33 48 18 26 - - 0.4
25/02:30am 7.2 -0.2 6.8 97 0.2 WSW 35 50 19 27 - - 0.4
25/02:00am 7.3 -1.6 6.7 96 0.3 WSW 43 56 23 30 - - 0.4
25/01:30am 7.1 0.0 6.4 95 0.3 WSW 33 44 18 24 - - 0.4
25/01:00am 7.4 -2.8 6.8 96 0.3 WSW 50 63 27 34 - - 0.4
25/12:30am 7.9 0.4 7.8 99 0.1 W 37 50 20 27 - - 0.4
25/12:00am 8.1 0.2 8.0 99 0.1 W 39 48 21 26 - - 0.4
 
Date/Time
EDT
Temp
°C
App
Temp
°C
Dew
Point
Rel
Hum
%
Delta-T
°C
Wind Press
QNH
hPa
Press
MSL
hPa
Rain
since 9 am
mm
Dir
 
Spd
km/h
Gust
km/h
Spd
kts
Gust
kts
24/11:30pm 8.6 1.2 8.5 99 0.1 WSW 37 46 20 25 - - 0.4
24/11:00pm 8.8 2.4 8.7 99 0.1 W 32 37 17 20 - - 0.4
24/10:30pm 8.9 2.0 8.8 99 0.1 W 35 43 19 23 - - 0.4
24/10:00pm 9.2 2.9 9.1 99 0.1 W 32 35 17 19 - - 0.4
24/09:57pm 9.3 2.9 9.2 99 0.1 W 33 35 18 19 - - 0.4
24/09:30pm 9.3 2.1 9.2 99 0.1 WNW 37 44 20 24 - - 0.4
24/09:00pm 9.4 2.6 9.3 99 0.1 NW 35 44 19 24 - - 0.4
24/08:30pm 9.5 2.4 9.4 99 0.1 NNW 37 43 20 23 - - 0.4
24/08:00pm 9.4 3.0 9.3 99 0.1 NNW 33 43 18 23 - - 0.4
24/07:30pm 9.2 2.9 9.1 99 0.1 N 32 39 17 21 - - 0.4
24/07:00pm 9.0 5.0 8.9 99 0.1 NNW 20 30 11 16 - - 0.4
24/06:30pm 9.0 3.1 8.9 99 0.1 NNW 30 37 16 20 - - 0.4
24/06:00pm 8.7 2.1 8.6 99 0.1 NNW 33 39 18 21 - - 0.4
24/05:30pm 8.3 2.6 8.2 99 0.1 N 28 35 15 19 - - 0.4
24/05:00pm 8.3 0.9 8.2 99 0.1 N 37 44 20 24 - - 0.4
24/04:30pm 8.2 0.0 8.1 99 0.1 N 41 52 22 28 - - 0.4
24/04:00pm 7.9 0.0 7.8 99 0.1 N 39 46 21 25 - - 0.4
24/03:30pm 7.8 -1.1 7.7 99 0.1 N 44 54 24 29 - - 0.4
24/03:00pm 7.4 -1.0 7.3 99 0.1 N 41 48 22 26 - - 0.4
24/02:30pm 6.9 -0.5 6.8 99 0.0 N 35 46 19 25 - - 0.4
24/02:00pm 6.7 -0.2 6.6 99 0.0 N 32 39 17 21 - - 0.4
24/01:30pm 6.5 -2.1 6.4 99 0.0 N 41 48 22 26 - - 0.4
24/01:00pm 6.1 -3.0 5.8 98 0.1 N 43 50 23 27 - - 0.4
24/12:30pm 6.0 -3.7 5.7 98 0.1 N 46 52 25 28 - - 0.4
24/12:00pm 5.9 -3.8 5.6 98 0.1 N 46 57 25 31 - - 0.4
24/11:30am 5.2 -5.1 4.9 98 0.1 N 48 59 26 32 - - 0.2
24/11:00am 4.6 -6.5 4.3 98 0.1 N 52 65 28 35 - - 0.2
24/10:30am 4.4 -6.0 4.1 98 0.1 N 48 61 26 33 - - 0.2
24/10:00am 3.8 -8.2 3.5 98 0.1 N 56 72 30 39 - - 0.2
24/09:30am 3.6 -8.5 3.3 98 0.1 N 56 72 30 39 - - 0.0
24/09:00am 3.1 -9.3 2.8 98 0.1 N 57 69 31 37 - - 0.2
24/08:30am 2.8 -9.6 2.5 98 0.1 N 57 65 31 35 - - 0.0
24/08:00am 2.3 -10.2 2.0 98 0.1 N 57 67 31 36 - - 0.0
24/07:30am 2.0 -8.8 1.7 98 0.1 N 48 61 26 33 - - 0.0
24/07:00am 1.3 -8.7 0.9 97 0.2 N 43 52 23 28 - - 0.0
24/06:44am 1.0 -8.3 0.3 95 0.3 N 39 59 21 32 - - 0.0
24/06:30am 1.1 -8.7 -0.1 92 0.5 N 41 54 22 29 - - 0.0
24/06:00am 1.0 -9.2 -0.5 90 0.6 N 43 67 23 36 - - 0.0
24/05:57am 0.9 -9.9 -0.4 91 0.5 N 46 67 25 36 - - 0.0
24/05:30am 0.7 -9.0 0.3 97 0.2 N 41 50 22 27 - - 0.0
24/05:00am 1.1 -8.1 -1.1 85 0.8 N 37 44 20 24 - - 0.0
24/04:30am 3.8 -8.2 -7.3 44 3.8 N 48 57 26 31 - - 0.0
24/04:00am 5.0 -7.7 -12.0 28 5.5 N 50 63 27 34 - - 0.0
24/03:30am 5.2 -8.0 -13.7 24 5.9 N 52 65 28 35 - - 0.0
24/03:00am 5.2 -7.6 -13.2 25 5.8 N 50 59 27 32 - - 0.0
24/02:30am 5.1 -7.0 -14.3 23 5.9 N 46 56 25 30 - - 0.0
24/02:00am 5.2 -7.2 -14.2 23 6.0 N 48 57 26 31 - - 0.0
24/01:30am 4.8 -6.6 -12.6 27 5.5 N 43 57 23 31 - - 0.0
24/01:00am 5.5 -6.2 -14.5 22 6.1 N 44 54 24 29 - - 0.0
24/12:30am 5.4 -6.2 -16.3 19 6.3 N 43 48 23 26 - - 0.0
24/12:00am 5.4 -6.2 -12.5 26 5.8 N 44 50 24 27 - - 0.0
 
Date/Time
EDT
Temp
°C
App
Temp
°C
Dew
Point
Rel
Hum
%
Delta-T
°C
Wind Press
QNH
hPa
Press
MSL
hPa
Rain
since 9 am
mm
Dir
 
Spd
km/h
Gust
km/h
Spd
kts
Gust
kts
23/11:30pm 5.4 -5.4 -9.6 33 4.9 N 41 50 22 27 - - 0.0
23/11:00pm 5.2 -5.1 -7.6 39 4.4 N 39 46 21 25 - - 0.0
23/10:30pm 5.5 -4.4 -7.7 38 4.5 N 37 48 20 26 - - 0.0
23/10:00pm 6.5 -3.9 -14.2 21 6.1 N 37 48 20 26 - - 0.0
23/09:30pm 5.5 -3.7 -8.7 35 4.8 N 33 44 18 24 - - 0.0
23/09:00pm 5.7 -3.3 -8.2 36 4.7 N 32 41 17 22 - - 0.0
23/08:30pm 5.8 -2.1 -8.8 34 4.9 N 26 35 14 19 - - 0.0
23/08:00pm 5.1 -1.3 -5.3 47 3.8 N 20 32 11 17 - - 0.0
23/07:30pm 5.3 -0.7 -3.0 55 3.2 N 19 24 10 13 - - 0.0

Other Formats:

Comma delimited format used in spreadsheet applications
http://www.bom.gov.au/fwo/IDT60801/IDT60801.95979.axf

JavaScript Object Notation format (JSON) in row-major order
http://www.bom.gov.au/fwo/IDT60801/IDT60801.95979.json